createdAt,value
2022-09-03T00:00:37.818Z,81.30
2022-09-03T00:03:14.012Z,81.70
2022-09-03T00:05:51.395Z,81.70
2022-09-03T00:08:31.731Z,81.90
2022-09-03T00:11:07.197Z,81.90
2022-09-03T00:13:40.555Z,82.00
2022-09-03T00:16:12.769Z,82.10
2022-09-03T00:18:47.355Z,82.10
2022-09-03T00:21:23.396Z,82.40
2022-09-03T00:23:52.940Z,82.30
2022-09-03T00:26:29.025Z,82.90
2022-09-03T00:31:44.653Z,81.50
2022-09-03T00:34:24.840Z,81.50
2022-09-03T00:36:56.314Z,81.50
2022-09-03T00:39:31.194Z,81.60
2022-09-03T00:42:36.338Z,81.70
2022-09-03T00:45:29.419Z,81.20
2022-09-03T00:48:11.490Z,81.30
2022-09-03T00:50:53.380Z,81.60
2022-09-03T00:53:36.052Z,81.70
2022-09-03T00:56:16.308Z,81.90
2022-09-03T00:59:04.104Z,81.70
2022-09-03T01:01:42.829Z,82.10
2022-09-03T01:04:33.428Z,82.10
2022-09-03T01:07:14.453Z,81.70
2022-09-03T01:09:54.893Z,81.10
2022-09-03T01:12:44.439Z,81.80
2022-09-03T01:15:24.704Z,81.70
2022-09-03T01:18:17.517Z,81.70
2022-09-03T01:21:00.710Z,81.70
2022-09-03T01:24:14.452Z,81.80
2022-09-03T01:27:05.927Z,82.10
2022-09-03T01:29:41.538Z,81.80
2022-09-03T01:32:16.981Z,81.90
2022-09-03T01:34:54.792Z,82.00
2022-09-03T01:37:34.286Z,82.30
2022-09-03T01:40:11.796Z,82.30
2022-09-03T01:42:51.063Z,82.20
2022-09-03T01:45:40.533Z,82.10
2022-09-03T01:48:42.902Z,82.30
2022-09-03T01:54:50.509Z,82.20
2022-09-03T01:57:54.290Z,82.40
2022-09-03T02:00:38.876Z,82.20
2022-09-03T02:03:17.600Z,82.20
2022-09-03T02:05:57.867Z,82.70
2022-09-03T02:08:38.155Z,82.60
2022-09-03T02:11:17.699Z,82.80
2022-09-03T02:14:01.800Z,83.40
2022-09-03T02:16:35.439Z,83.80
2022-09-03T02:19:12.476Z,84.30
2022-09-03T02:21:48.943Z,84.50
2022-09-03T02:24:29.753Z,84.80
2022-09-03T02:27:02.632Z,85.30
2022-09-03T02:29:35.182Z,86.00
2022-09-03T02:32:04.811Z,86.50
2022-09-03T02:34:35.637Z,86.60
2022-09-03T02:37:17.159Z,87.10
2022-09-03T02:39:46.284Z,87.30
2022-09-03T02:42:16.270Z,87.50
2022-09-03T02:44:50.154Z,87.70
2022-09-03T02:47:20.960Z,88.20
2022-09-03T02:49:51.746Z,88.50
2022-09-03T02:52:20.318Z,89.10
2022-09-03T02:54:48.915Z,89.40
2022-09-03T02:57:27.341Z,90.00
2022-09-03T02:59:57.006Z,90.20
2022-09-03T03:02:25.934Z,90.60
2022-09-03T03:04:56.616Z,90.80
2022-09-03T03:07:26.650Z,91.00
2022-09-03T03:09:58.276Z,90.90
2022-09-03T03:12:27.099Z,91.20
2022-09-03T03:14:55.709Z,91.20
2022-09-03T03:17:24.564Z,91.80
2022-09-03T03:19:53.251Z,91.90
2022-09-03T03:22:23.739Z,91.80
2022-09-03T03:24:53.146Z,92.20
2022-09-03T03:27:21.877Z,92.20
2022-09-03T03:29:50.620Z,92.60
2022-09-03T03:32:19.423Z,92.80
2022-09-03T03:34:48.641Z,93.20
2022-09-03T03:37:17.793Z,93.40
2022-09-03T03:39:51.847Z,94.00
2022-09-03T03:42:21.311Z,93.90
2022-09-03T03:44:53.877Z,94.20
2022-09-03T03:47:24.453Z,94.40
2022-09-03T03:49:53.518Z,94.90
2022-09-03T03:52:28.777Z,95.00
2022-09-03T03:54:59.366Z,95.00
2022-09-03T03:57:31.423Z,95.10
2022-09-03T04:00:00.397Z,95.60
2022-09-03T04:02:34.161Z,95.80
2022-09-03T04:05:05.127Z,96.00
2022-09-03T04:07:36.277Z,96.10
2022-09-03T04:10:07.329Z,96.40
2022-09-03T04:12:36.245Z,96.90
2022-09-03T04:15:05.386Z,97.20
2022-09-03T04:17:36.277Z,97.10
2022-09-03T04:20:08.125Z,97.50
2022-09-03T04:22:39.577Z,97.30
2022-09-03T04:25:11.783Z,97.80
2022-09-03T04:27:44.485Z,97.80
2022-09-03T04:30:16.418Z,97.90
2022-09-03T04:32:57.606Z,98.30
2022-09-03T04:35:37.575Z,98.40
2022-09-03T04:38:08.195Z,98.60
2022-09-03T04:40:39.000Z,98.60
2022-09-03T04:43:08.140Z,98.70
2022-09-03T04:45:37.171Z,98.90
2022-09-03T04:48:10.732Z,99.10
2022-09-03T04:50:41.663Z,99.20
2022-09-03T04:53:10.810Z,99.20
2022-09-03T04:55:41.442Z,99.30
2022-09-03T04:58:10.638Z,99.40
2022-09-03T05:00:42.453Z,99.60
2022-09-03T05:03:11.056Z,99.70
2022-09-03T05:05:39.745Z,99.90
2022-09-03T05:08:08.876Z,99.90
2022-09-03T05:10:37.635Z,99.90
2022-09-03T05:13:14.718Z,99.90
2022-09-03T05:15:48.823Z,99.90
2022-09-03T05:18:18.719Z,99.80
2022-09-03T05:20:59.618Z,99.60
2022-09-03T05:23:36.942Z,99.80
2022-09-03T05:26:13.165Z,99.30
2022-09-03T05:28:45.246Z,99.20
2022-09-03T05:31:15.737Z,99.30
2022-09-03T05:33:46.366Z,99.60
2022-09-03T05:36:18.401Z,99.90
2022-09-03T05:38:49.079Z,99.90
2022-09-03T05:41:19.491Z,99.80
2022-09-03T05:43:53.622Z,99.90
2022-09-03T05:46:26.501Z,99.70
2022-09-03T05:48:55.215Z,99.90
2022-09-03T05:51:23.988Z,99.90
2022-09-03T05:53:53.700Z,99.90
2022-09-03T05:56:24.102Z,99.90
2022-09-03T05:58:55.862Z,99.90
2022-09-03T06:01:26.906Z,99.90
2022-09-03T06:03:57.930Z,99.90
2022-09-03T06:06:27.660Z,99.90
2022-09-03T06:08:58.338Z,99.90
2022-09-03T06:11:30.945Z,99.90
2022-09-03T06:14:05.165Z,99.90
2022-09-03T06:16:35.921Z,99.90
2022-09-03T06:19:06.433Z,99.90
2022-09-03T06:21:36.266Z,99.80
2022-09-03T06:24:05.973Z,98.50
2022-09-03T06:26:38.530Z,96.50
2022-09-03T06:29:08.617Z,95.00
2022-09-03T06:31:37.582Z,93.80
2022-09-03T06:34:06.472Z,92.60
2022-09-03T06:36:35.335Z,92.20
2022-09-03T06:39:04.995Z,91.40
2022-09-03T06:41:35.733Z,90.10
2022-09-03T06:44:06.462Z,89.80
2022-09-03T06:46:39.134Z,88.80
2022-09-03T06:49:08.842Z,88.30
2022-09-03T06:51:43.853Z,88.20
2022-09-03T06:54:14.889Z,87.20
2022-09-03T06:56:44.594Z,87.10
2022-09-03T06:59:15.263Z,86.40
2022-09-03T07:01:46.824Z,85.10
2022-09-03T07:04:19.313Z,84.40
2022-09-03T07:06:49.299Z,83.80
2022-09-03T07:09:19.350Z,83.00
2022-09-03T07:11:50.020Z,82.30
2022-09-03T07:14:21.728Z,82.20
2022-09-03T07:16:57.410Z,82.10
2022-09-03T07:19:33.296Z,80.90
2022-09-03T07:22:02.564Z,80.80
2022-09-03T07:24:40.225Z,79.70
2022-09-03T07:27:14.366Z,78.20
2022-09-03T07:29:45.239Z,77.40
2022-09-03T07:32:16.085Z,76.30
2022-09-03T07:34:45.439Z,75.50
2022-09-03T07:37:16.550Z,75.10
2022-09-03T07:39:46.936Z,74.30
2022-09-03T07:42:16.421Z,74.40
2022-09-03T07:44:46.247Z,73.50
2022-09-03T07:47:26.924Z,73.30
2022-09-03T07:49:56.938Z,73.40
2022-09-03T07:52:30.614Z,73.40
2022-09-03T07:55:03.555Z,72.10
2022-09-03T07:57:33.587Z,71.90
2022-09-03T08:00:09.211Z,71.80
2022-09-03T08:02:47.748Z,71.60
2022-09-03T08:05:20.477Z,71.80
2022-09-03T08:07:50.904Z,71.50
2022-09-03T08:10:28.106Z,71.20
2022-09-03T08:13:01.641Z,71.30
2022-09-03T08:15:34.677Z,71.00
2022-09-03T08:18:07.711Z,70.50
2022-09-03T08:20:38.648Z,70.40
2022-09-03T08:23:11.729Z,70.90
2022-09-03T08:25:50.536Z,70.70
2022-09-03T08:28:31.793Z,70.90
2022-09-03T08:31:17.077Z,70.00
2022-09-03T08:34:28.632Z,69.50
2022-09-03T08:37:06.672Z,69.60
2022-09-03T08:39:40.236Z,69.40
2022-09-03T08:42:32.654Z,69.20
2022-09-03T08:45:15.431Z,69.20
2022-09-03T08:47:52.482Z,69.30
2022-09-03T08:50:32.268Z,70.30
2022-09-03T08:53:17.443Z,69.20
2022-09-03T08:56:09.594Z,68.90
2022-09-03T08:58:52.381Z,68.60
2022-09-03T09:01:38.951Z,68.50
2022-09-03T09:04:35.385Z,68.50
2022-09-03T09:13:53.807Z,69.20
2022-09-03T09:16:31.316Z,68.20
2022-09-03T09:19:15.766Z,68.30
2022-09-03T09:22:14.282Z,67.90
2022-09-03T09:24:53.547Z,67.40
2022-09-03T09:27:43.381Z,67.90
2022-09-03T09:30:19.023Z,67.50
2022-09-03T09:32:57.987Z,66.70
2022-09-03T09:35:30.317Z,67.00
2022-09-03T09:38:08.698Z,67.00
2022-09-03T09:40:45.026Z,67.00
2022-09-03T09:43:19.578Z,66.80
2022-09-03T09:46:00.705Z,66.60
2022-09-03T09:48:37.384Z,67.00
2022-09-03T09:51:07.919Z,66.80
2022-09-03T09:53:43.740Z,66.10
2022-09-03T09:56:27.718Z,65.90
2022-09-03T09:59:08.111Z,65.60
2022-09-03T10:01:40.335Z,64.60
2022-09-03T10:04:15.117Z,64.30
2022-09-03T10:06:58.586Z,63.20
2022-09-03T10:09:31.561Z,61.50
2022-09-03T10:12:24.874Z,60.90
2022-09-03T10:15:08.059Z,60.30
2022-09-03T10:17:51.441Z,60.80
2022-09-03T10:20:31.376Z,60.40
2022-09-03T10:23:06.974Z,60.00
2022-09-03T10:25:50.417Z,60.30
2022-09-03T10:28:25.033Z,60.10
2022-09-03T10:31:14.134Z,59.20
2022-09-03T10:33:49.710Z,59.10
2022-09-03T10:36:23.884Z,58.30
2022-09-03T10:39:02.092Z,58.50
2022-09-03T10:41:43.550Z,58.50
2022-09-03T10:44:36.003Z,58.50
2022-09-03T10:47:36.213Z,58.90
2022-09-03T10:50:18.824Z,58.70
2022-09-03T10:53:19.909Z,57.90
2022-09-03T10:55:59.920Z,58.30
2022-09-03T10:58:53.520Z,59.70
2022-09-03T11:01:36.400Z,61.10
2022-09-03T11:04:22.534Z,61.80
2022-09-03T11:07:16.505Z,62.90
2022-09-03T11:09:51.084Z,62.20
2022-09-03T11:12:26.997Z,61.30
2022-09-03T11:15:04.065Z,60.80
2022-09-03T11:17:42.632Z,59.30
2022-09-03T11:20:18.848Z,59.20
2022-09-03T11:22:49.492Z,59.10
2022-09-03T11:25:24.355Z,59.50
2022-09-03T11:28:09.264Z,60.00
2022-09-03T11:30:50.191Z,61.00
2022-09-03T11:33:25.066Z,61.70
2022-09-03T11:36:01.093Z,60.70
2022-09-03T11:38:32.919Z,59.50
2022-09-03T11:41:05.513Z,59.30
2022-09-03T11:43:35.715Z,58.70
2022-09-03T11:46:11.987Z,58.00
2022-09-03T11:48:45.159Z,57.50
2022-09-03T11:51:35.920Z,57.60
2022-09-03T11:54:06.564Z,57.80
2022-09-03T11:56:37.116Z,57.10
2022-09-03T11:59:18.644Z,57.10
2022-09-03T12:01:55.752Z,56.70
2022-09-03T12:04:33.082Z,56.20
2022-09-03T12:07:36.301Z,55.40
2022-09-03T12:10:20.762Z,54.10
2022-09-03T12:13:00.199Z,54.10
2022-09-03T12:15:52.229Z,54.70
2022-09-03T12:18:27.154Z,55.30
2022-09-03T12:21:06.603Z,54.70
2022-09-03T12:23:42.508Z,54.30
2022-09-03T12:26:15.705Z,53.80
2022-09-03T12:28:47.107Z,54.10
2022-09-03T12:31:25.827Z,54.60
2022-09-03T12:33:56.613Z,54.50
2022-09-03T12:36:40.311Z,53.30
2022-09-03T12:39:13.305Z,53.00
2022-09-03T12:41:58.415Z,53.90
2022-09-03T12:44:31.634Z,55.10
2022-09-03T12:49:59.185Z,54.50
2022-09-03T12:52:32.544Z,55.40
2022-09-03T12:55:18.292Z,56.90
2022-09-03T12:57:50.951Z,57.70
2022-09-03T13:00:23.761Z,58.00
2022-09-03T13:03:02.168Z,59.60
2022-09-03T13:05:37.364Z,61.60
2022-09-03T13:08:16.137Z,61.10
2022-09-03T13:10:46.176Z,60.50
2022-09-03T13:13:24.413Z,60.00
2022-09-03T13:16:12.591Z,58.30
2022-09-03T13:18:47.416Z,57.00
2022-09-03T13:21:23.549Z,57.60
2022-09-03T13:24:18.331Z,59.40
2022-09-03T13:26:59.690Z,59.50
2022-09-03T13:29:53.891Z,60.00
2022-09-03T13:32:37.330Z,59.90
2022-09-03T13:35:12.056Z,61.50
2022-09-03T13:37:45.412Z,61.10
2022-09-03T13:40:22.616Z,61.20
2022-09-03T13:42:56.327Z,61.00
2022-09-03T13:45:39.807Z,60.60
2022-09-03T13:48:32.368Z,59.40
2022-09-03T13:51:09.140Z,57.80
2022-09-03T13:53:48.232Z,57.80
2022-09-03T13:56:26.178Z,58.30
2022-09-03T13:59:03.291Z,57.10
2022-09-03T14:01:48.742Z,56.80
2022-09-03T14:04:31.470Z,57.60
2022-09-03T14:07:04.446Z,56.70
2022-09-03T14:09:41.063Z,54.10
2022-09-03T14:12:20.001Z,53.80
2022-09-03T14:15:00.254Z,53.50
2022-09-03T14:17:42.178Z,52.10
2022-09-03T14:20:20.224Z,51.70
2022-09-03T14:23:05.391Z,50.20
2022-09-03T14:25:34.814Z,50.40
2022-09-03T14:28:31.111Z,52.70
2022-09-03T14:31:09.435Z,51.60
2022-09-03T14:33:46.815Z,50.20
2022-09-03T14:36:23.649Z,49.60
2022-09-03T14:39:20.536Z,48.60
2022-09-03T14:42:31.875Z,49.60
2022-09-03T14:45:47.910Z,49.10
2022-09-03T14:49:01.018Z,49.20
2022-09-03T14:51:38.505Z,48.80
2022-09-03T14:54:30.225Z,50.50
2022-09-03T14:57:26.451Z,53.20
2022-09-03T15:05:16.176Z,56.10
2022-09-03T15:08:25.388Z,58.50
2022-09-03T15:11:40.571Z,59.60
2022-09-03T15:19:14.907Z,56.10
2022-09-03T15:22:15.588Z,57.70
2022-09-03T15:33:19.859Z,59.30
2022-09-03T15:36:13.119Z,59.30
2022-09-03T15:38:52.296Z,60.10
2022-09-03T15:41:39.412Z,61.00
2022-09-03T15:44:18.964Z,62.10
2022-09-03T15:46:57.046Z,62.40
2022-09-03T15:49:45.808Z,62.10
2022-09-03T15:52:30.626Z,62.70
2022-09-03T15:55:08.614Z,63.50
2022-09-03T15:57:45.801Z,63.10
2022-09-03T16:00:23.892Z,60.90
2022-09-03T16:03:01.575Z,58.20
2022-09-03T16:05:50.061Z,55.20
2022-09-03T16:08:25.285Z,53.70
2022-09-03T16:11:06.688Z,51.80
2022-09-03T16:13:58.769Z,50.20
2022-09-03T16:16:33.079Z,50.00
2022-09-03T16:19:12.837Z,50.30
2022-09-03T16:21:50.433Z,50.30
2022-09-03T16:24:24.203Z,51.70
2022-09-03T16:27:00.694Z,51.90
2022-09-03T16:29:32.405Z,52.90
2022-09-03T16:32:14.081Z,52.50
2022-09-03T16:34:53.561Z,51.80
2022-09-03T16:58:08.285Z,53.20
2022-09-03T17:00:51.826Z,55.40
2022-09-03T17:03:43.537Z,56.10
2022-09-03T17:06:41.687Z,56.60
2022-09-03T17:09:24.014Z,56.10
2022-09-03T17:12:05.923Z,56.00
2022-09-03T17:15:10.871Z,56.90
2022-09-03T17:18:03.202Z,57.70
2022-09-03T17:20:49.031Z,59.70
2022-09-03T17:23:48.158Z,62.20
2022-09-03T17:26:27.742Z,65.90
2022-09-03T17:29:15.002Z,67.70
2022-09-03T17:31:54.861Z,69.30
2022-09-03T17:34:38.827Z,70.60
2022-09-03T17:37:19.187Z,71.90
2022-09-03T17:40:10.130Z,73.50
2022-09-03T17:42:51.389Z,74.80
2022-09-03T17:45:38.597Z,76.00
2022-09-03T17:48:23.417Z,77.00
2022-09-03T17:50:59.085Z,77.70
2022-09-03T17:53:39.420Z,78.30
2022-09-03T17:56:14.001Z,79.20
2022-09-03T17:58:51.382Z,79.70
2022-09-03T18:01:26.772Z,80.30
2022-09-03T18:04:05.148Z,80.60
2022-09-03T18:06:39.485Z,81.50
2022-09-03T18:09:15.041Z,82.10
2022-09-03T18:11:51.246Z,82.70
2022-09-03T18:14:33.519Z,83.50
2022-09-03T18:17:09.213Z,84.00
2022-09-03T18:20:02.857Z,84.50
2022-09-03T18:22:56.953Z,84.90
2022-09-03T18:25:46.285Z,85.50
2022-09-03T18:28:38.573Z,86.20
2022-09-03T18:31:31.152Z,86.50
2022-09-03T18:34:17.765Z,86.70
2022-09-03T18:37:06.115Z,86.80
2022-09-03T18:39:53.013Z,86.50
2022-09-03T18:42:48.131Z,86.10
2022-09-03T18:46:22.623Z,86.10
2022-09-03T18:49:11.933Z,86.30
2022-09-03T18:52:11.629Z,86.60
2022-09-03T18:55:13.788Z,87.10
2022-09-03T18:58:14.421Z,87.40
2022-09-03T19:01:09.706Z,87.60
2022-09-03T19:04:09.482Z,87.70
2022-09-03T19:07:06.129Z,87.80
2022-09-03T19:10:04.742Z,88.20
2022-09-03T19:13:05.063Z,88.60
2022-09-03T19:16:00.659Z,88.80
2022-09-03T19:19:08.014Z,89.30
2022-09-03T19:22:02.194Z,89.80
2022-09-03T19:24:52.245Z,90.10
2022-09-03T19:27:58.918Z,90.50
2022-09-03T19:30:53.791Z,90.90
2022-09-03T19:33:51.382Z,91.10
2022-09-03T19:36:48.446Z,91.40
2022-09-03T19:39:51.864Z,91.80
2022-09-03T19:42:49.130Z,92.20
2022-09-03T19:45:47.221Z,92.70
2022-09-03T19:48:55.999Z,93.00
2022-09-03T19:51:52.653Z,93.40
2022-09-03T19:54:43.071Z,93.80
2022-09-03T19:57:33.239Z,94.10
2022-09-03T20:00:32.542Z,94.50
2022-09-03T20:03:21.635Z,94.90
2022-09-03T20:06:11.206Z,95.30
2022-09-03T20:08:58.843Z,95.70
2022-09-03T20:11:33.388Z,96.30
2022-09-03T20:14:21.026Z,97.00
2022-09-03T20:17:14.658Z,97.60
2022-09-03T20:19:56.226Z,97.90
2022-09-03T20:22:33.611Z,98.40
2022-09-03T20:25:19.234Z,98.80
2022-09-03T20:27:58.886Z,99.30
2022-09-03T20:30:35.878Z,99.70
2022-09-03T20:33:22.878Z,99.90
2022-09-03T20:36:05.234Z,99.90
2022-09-03T20:39:12.179Z,99.90
2022-09-03T20:41:50.479Z,99.90
2022-09-03T20:44:35.767Z,99.90
2022-09-03T20:47:21.737Z,99.90
2022-09-03T20:50:00.044Z,99.90
2022-09-03T20:52:39.354Z,99.90
2022-09-03T20:55:15.444Z,99.90
2022-09-03T20:57:55.765Z,99.90
2022-09-03T21:00:25.050Z,99.90
2022-09-03T21:03:18.368Z,99.90
2022-09-03T21:06:16.402Z,99.90
2022-09-03T21:09:02.945Z,99.90
2022-09-03T21:11:39.901Z,99.90
2022-09-03T21:14:19.620Z,99.90
2022-09-03T21:17:02.773Z,99.90
2022-09-03T21:19:48.910Z,99.90
2022-09-03T21:22:34.635Z,99.90
2022-09-03T21:25:08.061Z,99.90
2022-09-03T21:27:41.556Z,99.90
2022-09-03T21:30:14.825Z,99.90
2022-09-03T21:32:51.707Z,99.90
2022-09-03T21:35:30.305Z,99.90
2022-09-03T21:38:07.489Z,99.90
2022-09-03T21:40:41.282Z,99.90
2022-09-03T21:43:18.145Z,99.90
2022-09-03T21:45:55.429Z,99.90
2022-09-03T21:48:29.320Z,99.90
2022-09-03T21:51:02.441Z,99.90
2022-09-03T21:53:44.697Z,99.90
2022-09-03T21:56:30.935Z,99.90
2022-09-03T21:59:09.413Z,99.90
2022-09-03T22:01:55.102Z,99.90
2022-09-03T22:04:24.902Z,99.90
2022-09-03T22:07:08.654Z,99.90
2022-09-03T22:09:46.453Z,99.90
2022-09-03T22:12:22.167Z,99.90
2022-09-03T22:14:55.831Z,99.90
2022-09-03T22:17:33.071Z,99.90
2022-09-03T22:20:02.550Z,99.90
2022-09-03T22:22:40.933Z,99.90
2022-09-03T22:25:15.401Z,99.90
2022-09-03T22:27:49.735Z,99.90
2022-09-03T22:30:23.526Z,99.90
2022-09-03T22:33:02.853Z,99.90
2022-09-03T22:36:07.854Z,99.90
2022-09-03T23:45:50.156Z,99.90
2022-09-03T23:48:35.121Z,99.90
2022-09-03T23:51:53.032Z,99.90
2022-09-03T23:55:05.982Z,99.90
2022-09-03T23:58:18.609Z,99.90
